Time;durP1;ratioP1;P1;durP2;ratioP2;P2;SDS_P1;SDS_P2;PMS_P1;PMS_P2;Temp;Humidity;BMP_temperature;BMP_pressure;BME280_temperature;BME280_humidity;BME280_pressure;Samples;Min_cycle;Max_cycle;Signal;HPM_P1;HPM_P2
2021/07/23 00:00:39;;;;;;;11.77;6.85;;;13.50;90.60;;;;;;4971997;28;20030;-52
2021/07/23 00:03:05;;;;;;;9.23;6.40;;;13.40;90.80;;;;;;5010973;28;20502;-49
2021/07/23 00:05:31;;;;;;;10.23;6.90;;;13.40;90.90;;;;;;5011734;28;20038;-51
2021/07/23 00:07:57;;;;;;;9.57;6.20;;;13.40;91.00;;;;;;4996405;28;20065;-48
2021/07/23 00:10:22;;;;;;;8.52;5.75;;;13.40;91.00;;;;;;5003119;28;20072;-48
2021/07/23 00:12:48;;;;;;;11.27;6.75;;;13.40;90.90;;;;;;5015908;28;20033;-50
2021/07/23 00:15:14;;;;;;;11.50;6.63;;;13.30;90.90;;;;;;5023131;28;20033;-49
2021/07/23 00:17:40;;;;;;;9.00;6.82;;;13.30;90.90;;;;;;5016163;28;20041;-49
2021/07/23 00:20:07;;;;;;;10.55;6.88;;;13.30;91.00;;;;;;5014883;28;20042;-51
2021/07/23 00:22:32;;;;;;;9.10;6.55;;;13.30;91.10;;;;;;5022135;28;20095;-48
2021/07/23 00:24:58;;;;;;;10.45;6.95;;;13.30;91.30;;;;;;5018677;28;20046;-48
2021/07/23 00:27:24;;;;;;;12.82;7.72;;;13.30;91.70;;;;;;5009871;28;20430;-54
2021/07/23 00:29:50;;;;;;;10.95;7.00;;;13.20;91.60;;;;;;5010364;28;20042;-51
2021/07/23 00:32:15;;;;;;;8.63;6.65;;;13.30;91.80;;;;;;5008430;28;20053;-48
2021/07/23 00:34:41;;;;;;;11.63;7.55;;;13.30;91.70;;;;;;5009071;28;20061;-49
2021/07/23 00:37:07;;;;;;;9.43;7.30;;;13.30;91.80;;;;;;5002620;28;20080;-50
2021/07/23 00:39:32;;;;;;;10.73;6.65;;;13.40;91.80;;;;;;5006840;28;20129;-49
2021/07/23 00:41:58;;;;;;;10.98;7.20;;;13.40;91.70;;;;;;5001331;28;20045;-50
2021/07/23 00:44:23;;;;;;;11.65;7.50;;;13.40;91.60;;;;;;5000042;28;20474;-50
2021/07/23 00:46:49;;;;;;;10.18;6.97;;;13.40;91.70;;;;;;5012299;28;20045;-49
2021/07/23 00:49:15;;;;;;;12.00;7.20;;;13.40;91.70;;;;;;5008674;28;20070;-51
2021/07/23 00:51:42;;;;;;;13.18;8.48;;;13.50;91.70;;;;;;5007082;28;20091;-49
2021/07/23 00:54:09;;;;;;;12.18;8.05;;;13.50;91.70;;;;;;5007330;28;20042;-51
2021/07/23 00:56:36;;;;;;;14.65;7.88;;;13.50;91.70;;;;;;5014918;28;20163;-49
2021/07/23 00:59:03;;;;;;;10.07;7.25;;;13.50;91.60;;;;;;5012838;28;20048;-48
2021/07/23 01:01:30;;;;;;;12.23;8.20;;;13.60;91.70;;;;;;5012773;28;20434;-48
2021/07/23 01:03:56;;;;;;;12.55;8.23;;;13.60;91.80;;;;;;5015651;28;20045;-51
2021/07/23 01:06:23;;;;;;;10.75;7.97;;;13.60;91.80;;;;;;5010480;28;20041;-52
2021/07/23 01:08:49;;;;;;;13.23;8.02;;;13.60;91.80;;;;;;5005871;28;20038;-52
2021/07/23 01:11:14;;;;;;;12.68;8.65;;;13.60;91.90;;;;;;5012731;28;20092;-50
2021/07/23 01:13:41;;;;;;;12.57;8.20;;;13.60;91.90;;;;;;5004934;28;20045;-49
2021/07/23 01:16:07;;;;;;;12.10;8.23;;;13.70;92.00;;;;;;5009914;28;20038;-52
2021/07/23 01:18:34;;;;;;;12.43;8.27;;;13.70;92.00;;;;;;5010227;28;20529;-51
2021/07/23 01:21:01;;;;;;;11.10;8.85;;;13.70;92.10;;;;;;5012937;28;20474;-52
2021/07/23 01:23:30;;;;;;;17.27;10.10;;;13.70;92.00;;;;;;5010803;28;20073;-53
2021/07/23 01:26:00;;;;;;;13.10;9.52;;;13.70;92.10;;;;;;5013982;28;20034;-52
2021/07/23 01:28:28;;;;;;;15.43;9.18;;;13.70;92.20;;;;;;5015022;28;20038;-53
2021/07/23 01:30:54;;;;;;;17.63;10.30;;;13.80;92.30;;;;;;5013797;28;20081;-53
2021/07/23 01:33:20;;;;;;;12.00;8.45;;;13.80;92.20;;;;;;5013835;28;20046;-50
2021/07/23 01:35:46;;;;;;;15.35;9.55;;;13.80;92.20;;;;;;5006660;28;20092;-53
2021/07/23 01:38:14;;;;;;;13.32;9.40;;;13.90;92.30;;;;;;5010203;28;20080;-52
2021/07/23 01:40:42;;;;;;;13.70;9.15;;;13.90;92.30;;;;;;5011934;28;20484;-49
2021/07/23 01:43:08;;;;;;;14.90;9.18;;;14.00;92.20;;;;;;5013999;28;20436;-50
2021/07/23 01:45:33;;;;;;;13.82;9.30;;;14.00;92.30;;;;;;5012679;28;20041;-49
2021/07/23 01:47:59;;;;;;;14.27;9.43;;;14.10;92.20;;;;;;5013006;28;20462;-49
2021/07/23 01:50:25;;;;;;;15.95;9.52;;;14.10;92.20;;;;;;5012132;28;20529;-50
2021/07/23 01:52:50;;;;;;;13.00;8.30;;;14.10;92.30;;;;;;5012553;28;20044;-53
2021/07/23 01:55:16;;;;;;;14.65;8.35;;;14.20;92.40;;;;;;4993642;28;20180;-51
2021/07/23 01:57:41;;;;;;;12.82;8.77;;;14.20;92.40;;;;;;5013418;28;20491;-49
2021/07/23 02:00:08;;;;;;;13.68;8.45;;;14.20;92.50;;;;;;5014025;28;20426;-51
2021/07/23 02:02:34;;;;;;;12.57;8.18;;;14.20;92.60;;;;;;5013636;28;20100;-52
2021/07/23 02:05:00;;;;;;;13.15;8.25;;;14.20;92.70;;;;;;5004835;28;20041;-51
2021/07/23 02:07:27;;;;;;;14.48;8.48;;;14.30;92.70;;;;;;5019879;28;20072;-49
2021/07/23 02:09:53;;;;;;;10.90;8.10;;;14.30;92.80;;;;;;5018646;28;20089;-53
2021/07/23 02:12:19;;;;;;;12.90;8.40;;;14.30;92.90;;;;;;5011528;28;20204;-50
2021/07/23 02:14:44;;;;;;;14.30;9.25;;;14.40;92.90;;;;;;5011450;28;20046;-52
2021/07/23 02:17:10;;;;;;;14.70;8.35;;;14.30;92.80;;;;;;5012749;28;20038;-51
2021/07/23 02:19:36;;;;;;;13.77;9.38;;;14.40;92.80;;;;;;5013709;28;20041;-49
2021/07/23 02:22:01;;;;;;;13.50;9.23;;;14.40;92.90;;;;;;5012054;28;20061;-51
2021/07/23 02:24:27;;;;;;;14.15;9.57;;;14.40;92.90;;;;;;5011749;28;20048;-50
2021/07/23 02:26:53;;;;;;;16.20;9.63;;;14.40;92.90;;;;;;5011757;28;20050;-53
2021/07/23 02:29:22;;;;;;;13.88;9.73;;;14.40;92.90;;;;;;5012280;28;20403;-52
2021/07/23 02:31:48;;;;;;;18.20;9.88;;;14.40;92.90;;;;;;5012318;28;20054;-53
2021/07/23 02:34:14;;;;;;;16.67;9.73;;;14.40;92.90;;;;;;5006564;28;20050;-53
2021/07/23 02:36:41;;;;;;;14.93;10.07;;;14.40;92.90;;;;;;5008696;28;20042;-53
2021/07/23 02:39:06;;;;;;;14.43;9.95;;;14.50;93.00;;;;;;5005668;28;20053;-53
2021/07/23 02:41:32;;;;;;;13.25;9.85;;;14.50;93.10;;;;;;5011874;28;20088;-53
2021/07/23 02:43:58;;;;;;;15.80;11.07;;;14.40;92.90;;;;;;5012045;28;20073;-52
2021/07/23 02:46:24;;;;;;;12.65;9.65;;;14.40;93.00;;;;;;5016015;28;20077;-53
2021/07/23 02:48:49;;;;;;;15.77;10.07;;;14.50;92.90;;;;;;5020682;28;20443;-52
2021/07/23 02:51:15;;;;;;;14.25;9.98;;;14.50;92.90;;;;;;5013492;28;20037;-53
2021/07/23 02:53:41;;;;;;;15.88;10.15;;;14.50;92.80;;;;;;5012054;28;20041;-50
2021/07/23 02:56:07;;;;;;;14.88;10.35;;;14.50;92.70;;;;;;5012046;28;20475;-49
2021/07/23 02:58:42;;;;;;;19.73;10.48;;;14.50;92.70;;;;;;5008883;28;20038;-51
2021/07/23 03:01:09;;;;;;;14.30;10.13;;;14.60;92.80;;;;;;5004835;28;20491;-49
2021/07/23 03:03:36;;;;;;;16.30;10.40;;;14.60;92.80;;;;;;4999513;28;20054;-53
2021/07/23 03:06:01;;;;;;;14.57;9.95;;;14.60;92.80;;;;;;5010158;28;20431;-48
2021/07/23 03:08:30;;;;;;;15.68;10.13;;;14.60;92.80;;;;;;5009704;28;20067;-52
2021/07/23 03:10:56;;;;;;;15.55;10.95;;;14.60;92.80;;;;;;5009586;28;20404;-48
2021/07/23 03:13:21;;;;;;;17.13;10.65;;;14.60;92.90;;;;;;5000164;28;20038;-49
2021/07/23 03:15:47;;;;;;;14.27;10.10;;;14.60;92.80;;;;;;5007677;28;20415;-49
2021/07/23 03:18:15;;;;;;;16.92;11.13;;;14.60;92.90;;;;;;5010932;28;20445;-49
2021/07/23 03:20:41;;;;;;;17.48;10.85;;;14.70;93.00;;;;;;5011779;28;20049;-50
2021/07/23 03:23:09;;;;;;;16.17;10.68;;;14.70;93.20;;;;;;5021517;28;20061;-52
2021/07/23 03:25:35;;;;;;;15.45;10.57;;;14.70;93.00;;;;;;5023886;28;20064;-48
2021/07/23 03:28:01;;;;;;;15.65;10.77;;;14.70;93.00;;;;;;5029167;28;20045;-51
2021/07/23 03:30:27;;;;;;;16.27;11.52;;;14.70;93.00;;;;;;5031813;28;20041;-49
2021/07/23 03:32:53;;;;;;;15.85;11.35;;;14.70;93.00;;;;;;5025222;28;20053;-52
2021/07/23 03:35:19;;;;;;;15.27;11.25;;;14.70;93.00;;;;;;5027835;28;20049;-51
2021/07/23 03:37:45;;;;;;;17.60;10.43;;;14.70;93.10;;;;;;5032078;28;20091;-52
2021/07/23 03:40:10;;;;;;;16.15;11.45;;;14.80;93.10;;;;;;5022143;28;20060;-53
2021/07/23 03:42:36;;;;;;;14.90;10.70;;;14.80;93.20;;;;;;5020906;28;20052;-48
2021/07/23 03:45:02;;;;;;;19.27;10.82;;;14.80;93.10;;;;;;5022343;28;20042;-47
2021/07/23 03:47:28;;;;;;;18.20;11.07;;;14.80;93.20;;;;;;5018995;28;20057;-52
2021/07/23 03:49:53;;;;;;;14.32;10.55;;;14.80;93.20;;;;;;5018994;28;20072;-51
2021/07/23 03:52:19;;;;;;;17.67;11.38;;;14.80;93.20;;;;;;5000576;28;20045;-51
2021/07/23 03:54:45;;;;;;;17.40;11.02;;;14.80;93.20;;;;;;5003167;28;20118;-50
2021/07/23 03:57:10;;;;;;;15.27;11.23;;;14.80;93.20;;;;;;5008594;28;20550;-49
2021/07/23 03:59:36;;;;;;;15.80;10.40;;;14.80;93.20;;;;;;5011416;28;20034;-53
2021/07/23 04:02:03;;;;;;;16.00;11.30;;;14.80;93.30;;;;;;5017556;28;20058;-50
2021/07/23 04:04:31;;;;;;;15.48;11.23;;;14.80;93.30;;;;;;5015498;28;20508;-52
2021/07/23 04:07:01;;;;;;;16.85;11.38;;;14.90;93.30;;;;;;5000456;28;20046;-52
2021/07/23 04:09:27;;;;;;;17.55;11.07;;;14.90;93.40;;;;;;5007074;28;20042;-49
2021/07/23 04:11:54;;;;;;;17.10;10.82;;;14.90;93.40;;;;;;5008306;28;20045;-51
2021/07/23 04:14:20;;;;;;;14.18;10.85;;;14.90;93.50;;;;;;5012751;28;20045;-52
2021/07/23 04:16:46;;;;;;;16.67;10.73;;;14.90;93.70;;;;;;5010878;28;20040;-53
2021/07/23 04:19:12;;;;;;;16.42;10.73;;;14.90;93.50;;;;;;5014697;28;20034;-53
2021/07/23 04:21:38;;;;;;;15.35;10.73;;;14.90;93.60;;;;;;5014900;28;20113;-53
2021/07/23 04:24:05;;;;;;;16.88;11.10;;;14.90;93.70;;;;;;5014334;28;20148;-53
2021/07/23 04:26:32;;;;;;;16.20;10.63;;;14.90;93.60;;;;;;5013197;28;20034;-54
2021/07/23 04:28:57;;;;;;;13.40;10.05;;;15.00;93.60;;;;;;5013858;28;20528;-49
2021/07/23 04:31:24;;;;;;;17.52;10.77;;;15.00;93.60;;;;;;5010545;28;20129;-49
2021/07/23 04:33:50;;;;;;;18.38;10.48;;;15.00;93.60;;;;;;5013016;28;20180;-53
2021/07/23 04:36:16;;;;;;;22.38;11.15;;;15.10;93.70;;;;;;5013336;28;20568;-52
2021/07/23 04:38:42;;;;;;;16.98;10.93;;;15.20;93.60;;;;;;5003573;28;20046;-52
2021/07/23 04:41:08;;;;;;;16.10;10.40;;;15.20;93.60;;;;;;5011400;28;20030;-53
2021/07/23 04:43:38;;;;;;;15.07;10.95;;;15.10;93.60;;;;;;5011882;28;20092;-53
2021/07/23 04:46:08;;;;;;;16.85;10.52;;;15.20;93.60;;;;;;5011485;28;20137;-49
2021/07/23 04:48:34;;;;;;;14.57;10.50;;;15.20;93.60;;;;;;5002870;28;20045;-49
2021/07/23 04:51:04;;;;;;;14.80;10.73;;;15.30;93.90;;;;;;5013443;28;20407;-52
2021/07/23 04:53:32;;;;;;;20.25;11.38;;;15.30;93.70;;;;;;5003427;28;20056;-51
2021/07/23 04:56:04;;;;;;;17.00;10.65;;;15.30;93.70;;;;;;5012094;28;20042;-54
2021/07/23 04:58:30;;;;;;;15.23;10.57;;;15.30;93.70;;;;;;5013966;28;20048;-52
2021/07/23 05:00:56;;;;;;;15.52;10.88;;;15.30;93.70;;;;;;4995676;28;20034;-52
2021/07/23 05:03:24;;;;;;;16.58;11.27;;;15.30;93.70;;;;;;4996442;28;20060;-54
2021/07/23 05:05:54;;;;;;;15.43;11.15;;;15.40;93.70;;;;;;5006090;28;20046;-52
2021/07/23 05:08:21;;;;;;;14.13;9.68;;;15.40;93.80;;;;;;5006091;28;20076;-52
2021/07/23 05:10:47;;;;;;;17.23;11.05;;;15.40;93.80;;;;;;5013120;28;20045;-53
2021/07/23 05:13:12;;;;;;;15.00;9.90;;;15.40;93.70;;;;;;5013958;28;20077;-51
2021/07/23 05:15:40;;;;;;;15.15;9.50;;;15.50;93.70;;;;;;4999589;28;20045;-51
2021/07/23 05:18:10;;;;;;;16.77;10.80;;;15.50;93.70;;;;;;5012942;28;20041;-54
2021/07/23 05:20:37;;;;;;;16.08;9.90;;;15.50;93.70;;;;;;5012430;28;20053;-52
2021/07/23 05:23:03;;;;;;;17.77;10.73;;;15.60;93.70;;;;;;5005778;28;20031;-50
2021/07/23 05:25:31;;;;;;;13.68;9.80;;;15.60;93.90;;;;;;4988934;28;20418;-51
2021/07/23 05:27:56;;;;;;;15.13;10.18;;;15.70;93.70;;;;;;5000197;28;20395;-53
2021/07/23 05:30:22;;;;;;;16.38;10.38;;;15.60;93.70;;;;;;5002486;28;20042;-52
2021/07/23 05:32:49;;;;;;;16.02;10.25;;;15.70;93.90;;;;;;5011453;28;20049;-53
2021/07/23 05:35:15;;;;;;;15.95;10.40;;;15.70;93.70;;;;;;5009760;28;20049;-53
2021/07/23 05:37:41;;;;;;;16.13;10.65;;;15.70;93.70;;;;;;5026752;28;20446;-52
2021/07/23 05:40:08;;;;;;;18.65;10.98;;;15.70;93.70;;;;;;5015332;28;20048;-52
2021/07/23 05:42:33;;;;;;;13.20;9.82;;;15.80;93.60;;;;;;4999231;28;20054;-52
2021/07/23 05:44:59;;;;;;;16.27;9.68;;;15.80;93.50;;;;;;4996633;28;20053;-52
2021/07/23 05:47:28;;;;;;;13.70;9.52;;;15.80;93.50;;;;;;5006368;28;20494;-53
2021/07/23 05:49:54;;;;;;;15.13;9.55;;;15.80;93.50;;;;;;5009001;28;20042;-51
2021/07/23 05:52:21;;;;;;;12.48;9.50;;;15.90;93.40;;;;;;5011139;28;20050;-50
2021/07/23 05:54:47;;;;;;;15.05;9.75;;;15.90;93.50;;;;;;5010234;28;20034;-51
2021/07/23 05:57:13;;;;;;;15.35;9.45;;;15.90;93.50;;;;;;5012079;28;20050;-50
2021/07/23 05:59:39;;;;;;;12.23;9.43;;;15.90;93.50;;;;;;5010609;28;20038;-50
2021/07/23 06:02:05;;;;;;;14.02;10.13;;;16.00;93.50;;;;;;5012658;28;20053;-50
2021/07/23 06:04:33;;;;;;;14.85;9.85;;;16.00;93.50;;;;;;4993468;28;20034;-50
2021/07/23 06:07:03;;;;;;;14.95;9.38;;;16.00;93.50;;;;;;5010845;28;20449;-50
2021/07/23 06:09:29;;;;;;;12.95;9.05;;;16.00;93.60;;;;;;5009582;28;20077;-52
2021/07/23 06:11:55;;;;;;;14.55;9.45;;;16.00;93.50;;;;;;4994484;28;20042;-52
2021/07/23 06:14:21;;;;;;;12.20;8.52;;;16.10;93.40;;;;;;5010248;28;20451;-50
2021/07/23 06:16:46;;;;;;;13.32;8.48;;;16.10;93.40;;;;;;4999894;28;20053;-53
2021/07/23 06:19:12;;;;;;;14.93;9.13;;;16.10;93.40;;;;;;5005273;28;20034;-49
2021/07/23 06:21:38;;;;;;;12.20;8.45;;;16.10;93.40;;;;;;5008905;28;20050;-51
2021/07/23 06:24:04;;;;;;;13.73;8.65;;;16.20;93.40;;;;;;5001027;28;20042;-50
2021/07/23 06:26:30;;;;;;;10.05;7.70;;;16.20;93.30;;;;;;5010684;28;20059;-51
2021/07/23 06:28:56;;;;;;;13.57;8.48;;;16.20;93.30;;;;;;5012109;28;20042;-50
2021/07/23 06:31:21;;;;;;;15.45;9.23;;;16.20;93.20;;;;;;5011332;28;20046;-50
2021/07/23 06:33:47;;;;;;;11.15;7.95;;;16.20;93.20;;;;;;5009865;28;20038;-51
2021/07/23 06:36:13;;;;;;;12.45;8.60;;;16.30;93.20;;;;;;5010647;28;20053;-52
2021/07/23 06:38:39;;;;;;;11.45;8.00;;;16.30;93.00;;;;;;5010153;28;20048;-50
2021/07/23 06:41:06;;;;;;;12.32;8.05;;;16.30;92.80;;;;;;5006363;28;20053;-50
2021/07/23 06:43:32;;;;;;;12.75;8.18;;;16.30;92.80;;;;;;5007687;28;20057;-52
2021/07/23 06:46:01;;;;;;;13.32;8.23;;;16.30;92.70;;;;;;5010867;28;20034;-52
2021/07/23 06:48:26;;;;;;;11.50;8.15;;;16.40;92.70;;;;;;5010751;28;20458;-53
2021/07/23 06:50:52;;;;;;;14.80;8.07;;;16.40;92.80;;;;;;4997505;28;20076;-50
2021/07/23 06:53:19;;;;;;;14.50;7.55;;;16.40;92.60;;;;;;5010875;28;20122;-53
2021/07/23 06:55:45;;;;;;;12.48;8.02;;;16.40;92.50;;;;;;5009834;28;20040;-53
2021/07/23 06:58:11;;;;;;;11.52;7.45;;;16.40;92.40;;;;;;5011166;28;20061;-49
2021/07/23 07:00:38;;;;;;;10.82;7.50;;;16.40;92.20;;;;;;5013872;28;20081;-51
2021/07/23 07:03:09;;;;;;;12.65;7.88;;;16.40;92.20;;;;;;5004232;28;20037;-52
2021/07/23 07:05:35;;;;;;;14.63;8.30;;;16.50;92.00;;;;;;4996351;28;20091;-51
2021/07/23 07:08:02;;;;;;;12.02;7.35;;;16.50;92.00;;;;;;5014372;28;20129;-50
2021/07/23 07:10:28;;;;;;;11.27;7.40;;;16.50;92.00;;;;;;5012186;28;20559;-52
2021/07/23 07:12:58;;;;;;;13.15;8.35;;;16.50;91.90;;;;;;5014602;28;20177;-52
2021/07/23 07:15:24;;;;;;;14.73;8.77;;;16.60;92.00;;;;;;5014141;28;20474;-52
2021/07/23 07:18:00;;;;;;;11.65;8.20;;;16.60;91.60;;;;;;5013369;28;20037;-51
2021/07/23 07:20:27;;;;;;;11.38;8.00;;;16.60;91.60;;;;;;5014669;28;20077;-51
2021/07/23 07:22:54;;;;;;;11.98;8.55;;;16.60;91.60;;;;;;5013694;28;20042;-49
2021/07/23 07:25:21;;;;;;;11.68;8.02;;;16.60;91.70;;;;;;5021094;28;20049;-50
2021/07/23 07:27:48;;;;;;;11.43;8.18;;;16.70;91.70;;;;;;5017735;28;20050;-50
2021/07/23 07:30:17;;;;;;;15.35;8.75;;;16.70;91.70;;;;;;5014385;28;20426;-49
2021/07/23 07:32:44;;;;;;;13.77;8.15;;;16.70;91.60;;;;;;5013487;28;20120;-53
2021/07/23 07:35:11;;;;;;;15.85;7.97;;;16.70;91.50;;;;;;5011918;28;20526;-49
2021/07/23 07:37:37;;;;;;;16.08;7.90;;;16.80;91.20;;;;;;5013900;28;20050;-52
2021/07/23 07:40:04;;;;;;;14.60;7.80;;;16.80;91.10;;;;;;5022331;28;20099;-51
2021/07/23 07:42:30;;;;;;;10.77;7.40;;;16.80;91.20;;;;;;5008101;28;20415;-50
2021/07/23 07:44:58;;;;;;;12.18;7.50;;;16.80;91.00;;;;;;4980546;28;20449;-52
2021/07/23 07:47:24;;;;;;;11.15;7.13;;;16.90;90.90;;;;;;5013987;28;20131;-49
2021/07/23 07:49:50;;;;;;;9.93;6.63;;;16.90;91.00;;;;;;4980262;28;20632;-51
2021/07/23 07:52:18;;;;;;;9.75;6.95;;;16.90;91.10;;;;;;5005474;28;20120;-52
2021/07/23 07:54:45;;;;;;;12.10;6.95;;;16.90;91.00;;;;;;5002979;28;20120;-50
2021/07/23 07:57:11;;;;;;;13.10;7.05;;;16.90;90.90;;;;;;5012316;28;20379;-51
2021/07/23 07:59:37;;;;;;;10.82;6.95;;;16.90;90.90;;;;;;5013287;28;20129;-51
2021/07/23 08:02:07;;;;;;;10.20;6.68;;;17.00;90.80;;;;;;5013581;28;20414;-52
2021/07/23 08:04:32;;;;;;;12.95;7.20;;;17.00;90.30;;;;;;5011810;28;20092;-54
2021/07/23 08:07:00;;;;;;;10.05;7.53;;;17.00;90.00;;;;;;5009936;28;20065;-52
2021/07/23 08:09:26;;;;;;;10.50;6.95;;;17.00;89.90;;;;;;5006140;28;20105;-53
2021/07/23 08:11:53;;;;;;;13.00;7.25;;;17.00;89.60;;;;;;4998575;28;20038;-53
2021/07/23 08:14:19;;;;;;;16.13;7.13;;;17.00;89.50;;;;;;4995654;28;20115;-52
2021/07/23 08:16:44;;;;;;;11.88;6.95;;;17.10;89.80;;;;;;5003901;28;20038;-51
2021/07/23 08:19:10;;;;;;;9.50;6.97;;;17.10;88.70;;;;;;5012588;28;20069;-52
2021/07/23 08:21:37;;;;;;;10.80;8.00;;;17.10;89.20;;;;;;5012403;28;20037;-52
2021/07/23 08:24:03;;;;;;;12.90;7.65;;;17.10;89.30;;;;;;5013276;28;20129;-50
2021/07/23 08:26:29;;;;;;;15.93;8.55;;;17.10;88.60;;;;;;5012693;28;20483;-49
2021/07/23 08:28:54;;;;;;;14.80;8.10;;;17.10;87.70;;;;;;4995565;28;20395;-52
2021/07/23 08:31:21;;;;;;;12.50;7.57;;;17.20;87.80;;;;;;5012639;28;20038;-52
2021/07/23 08:33:47;;;;;;;12.18;7.85;;;17.20;87.50;;;;;;4979342;28;20049;-52
2021/07/23 08:36:13;;;;;;;12.02;7.50;;;17.20;87.30;;;;;;5012538;28;20049;-51
2021/07/23 08:38:39;;;;;;;12.80;7.25;;;17.20;86.50;;;;;;5012284;28;20080;-48
2021/07/23 08:41:05;;;;;;;10.13;7.75;;;17.20;86.50;;;;;;5003434;28;20037;-51
2021/07/23 08:43:31;;;;;;;10.20;7.47;;;17.20;86.80;;;;;;5012544;28;20097;-51
2021/07/23 08:45:57;;;;;;;11.55;7.82;;;17.20;87.30;;;;;;5010765;28;20042;-49
2021/07/23 08:48:23;;;;;;;14.55;7.90;;;17.20;87.50;;;;;;5007042;28;20827;-52
2021/07/23 08:50:49;;;;;;;12.07;7.43;;;17.20;87.70;;;;;;4998103;28;20038;-50
2021/07/23 08:53:15;;;;;;;10.13;7.38;;;17.20;87.80;;;;;;5011354;28;20038;-52
2021/07/23 08:55:40;;;;;;;11.68;7.88;;;17.30;87.50;;;;;;5008189;28;20045;-53
2021/07/23 08:58:08;;;;;;;13.73;7.45;;;17.30;86.70;;;;;;4996112;28;20037;-52
2021/07/23 09:00:34;;;;;;;10.75;8.02;;;17.30;86.30;;;;;;5012469;28;20607;-51
2021/07/23 09:03:06;;;;;;;10.10;8.05;;;17.30;86.70;;;;;;5012206;28;20049;-50
2021/07/23 09:05:34;;;;;;;;;;;17.30;86.90;;;;;;5006818;28;20087;-53
2021/07/23 09:08:12;;;;;;;14.75;8.93;;;17.30;86.70;;;;;;5009556;28;20039;-53
2021/07/23 09:10:38;;;;;;;13.15;8.27;;;17.40;87.00;;;;;;5010657;28;20035;-54
2021/07/23 09:13:06;;;;;;;13.43;8.27;;;17.40;86.00;;;;;;5012313;28;20079;-49
2021/07/23 09:15:41;;;;;;;12.32;8.43;;;17.40;84.90;;;;;;5001337;28;20040;-53
2021/07/23 09:18:23;;;;;;;14.52;8.95;;;17.40;84.80;;;;;;5007970;28;20285;-53
2021/07/23 09:21:01;;;;;;;12.10;9.10;;;17.40;85.20;;;;;;5010711;28;20091;-52
2021/07/23 09:23:30;;;;;;;15.00;8.88;;;17.40;85.20;;;;;;4999125;28;20041;-54
2021/07/23 09:25:59;;;;;;;11.68;9.18;;;17.40;85.70;;;;;;5011766;28;20107;-52
2021/07/23 09:28:30;;;;;;;17.52;10.27;;;17.40;86.30;;;;;;4980719;28;20037;-52
2021/07/23 09:30:58;;;;;;;17.98;9.40;;;17.40;86.30;;;;;;5011696;28;20538;-52
2021/07/23 09:33:30;;;;;;;14.65;10.48;;;17.40;86.70;;;;;;5011298;28;20042;-53
2021/07/23 09:35:57;;;;;;;16.17;10.77;;;17.40;86.70;;;;;;5010865;28;20203;-52
2021/07/23 09:38:24;;;;;;;14.30;10.23;;;17.40;87.00;;;;;;5009584;28;20065;-53
2021/07/23 09:40:52;;;;;;;16.40;10.18;;;17.50;86.00;;;;;;5015205;28;20046;-52
2021/07/23 09:43:36;;;;;;;16.70;10.52;;;17.60;84.40;;;;;;5005087;28;20092;-52
2021/07/23 09:46:21;;;;;;;15.57;10.88;;;17.60;84.60;;;;;;5010333;28;20458;-49
2021/07/23 09:48:48;;;;;;;17.48;11.70;;;17.50;84.70;;;;;;5007316;28;20045;-52
2021/07/23 09:51:15;;;;;;;16.40;12.70;;;17.50;85.00;;;;;;5010786;28;20528;-52
2021/07/23 09:53:40;;;;;;;17.08;12.73;;;17.50;85.60;;;;;;5011688;28;20088;-52
2021/07/23 09:56:08;;;;;;;15.38;12.30;;;17.50;86.10;;;;;;5004973;28;20161;-52
2021/07/23 09:58:44;;;;;;;15.40;11.65;;;17.50;85.80;;;;;;5003760;28;20045;-53
2021/07/23 10:01:22;;;;;;;16.17;12.50;;;17.50;85.60;;;;;;5010427;28;20037;-57
2021/07/23 10:03:50;;;;;;;17.50;13.35;;;17.50;85.80;;;;;;5011919;28;20034;-52
2021/07/23 10:06:36;;;;;;;17.75;13.75;;;17.50;85.70;;;;;;5008790;28;20080;-51
2021/07/23 10:09:10;;;;;;;18.33;13.52;;;17.50;86.90;;;;;;5009782;28;20038;-49
2021/07/23 10:11:44;;;;;;;18.08;12.40;;;17.40;87.40;;;;;;4991319;28;20451;-51
2021/07/23 10:14:16;;;;;;;15.68;12.05;;;17.40;87.80;;;;;;5010507;28;20038;-52
2021/07/23 10:16:42;;;;;;;17.45;11.70;;;17.40;87.30;;;;;;5009450;28;20041;-52
2021/07/23 10:19:08;;;;;;;17.33;12.30;;;17.40;87.70;;;;;;5010356;28;20041;-51
2021/07/23 10:21:34;;;;;;;17.92;12.35;;;17.40;87.90;;;;;;5010464;28;20439;-53
2021/07/23 10:24:02;;;;;;;15.48;11.85;;;17.40;88.10;;;;;;5011508;28;20084;-51
2021/07/23 10:26:31;;;;;;;15.43;11.65;;;17.40;88.20;;;;;;5008878;28;20034;-51
2021/07/23 10:28:58;;;;;;;15.50;11.10;;;17.50;88.20;;;;;;5004401;28;20053;-52
2021/07/23 10:31:24;;;;;;;16.83;10.77;;;17.60;88.10;;;;;;5010791;28;20041;-49
2021/07/23 10:34:03;;;;;;;14.05;10.95;;;17.60;87.80;;;;;;5012257;28;20108;-54
2021/07/23 10:36:32;;;;;;;13.85;10.40;;;17.70;87.40;;;;;;5018421;28;20092;-52
2021/07/23 10:39:07;;;;;;;15.30;10.15;;;17.70;87.30;;;;;;5012745;28;20042;-53
2021/07/23 10:41:42;;;;;;;14.02;9.63;;;17.80;87.70;;;;;;5014206;28;20060;-53
2021/07/23 10:44:32;;;;;;;11.55;8.98;;;17.80;87.60;;;;;;5011540;28;20144;-52
2021/07/23 10:46:59;;;;;;;12.32;8.63;;;18.00;87.70;;;;;;5007053;28;20566;-52
2021/07/23 10:49:24;;;;;;;14.60;8.95;;;18.00;87.20;;;;;;5017397;28;20038;-51
2021/07/23 10:51:52;;;;;;;11.00;8.27;;;18.10;86.50;;;;;;5014902;28;20117;-52
2021/07/23 10:54:24;;;;;;;11.25;7.88;;;18.10;85.80;;;;;;5005007;28;20042;-50
2021/07/23 10:56:56;;;;;;;;;;;18.20;85.20;;;;;;5016166;28;20103;-53
2021/07/23 10:59:40;;;;;;;12.43;7.25;;;18.20;84.40;;;;;;5010289;28;19964;-53
2021/07/23 11:02:16;;;;;;;11.82;6.78;;;18.30;83.50;;;;;;5032541;28;20053;-52
2021/07/23 11:04:51;;;;;;;10.57;5.55;;;18.30;84.30;;;;;;5012717;28;20060;-53
2021/07/23 11:07:23;;;;;;;9.02;5.60;;;18.50;80.10;;;;;;5017163;28;20053;-52
2021/07/23 11:09:49;;;;;;;12.45;6.30;;;18.40;82.30;;;;;;5001952;28;20518;-51
2021/07/23 11:12:15;;;;;;;11.88;6.50;;;18.40;83.20;;;;;;5016947;28;20046;-50
2021/07/23 11:15:05;;;;;;;10.38;6.70;;;18.40;82.70;;;;;;5007616;28;20042;-53
2021/07/23 11:17:31;;;;;;;10.27;5.90;;;18.40;82.20;;;;;;5015864;28;20042;-52
2021/07/23 11:20:01;;;;;;;9.20;6.03;;;18.50;80.80;;;;;;5017040;28;20040;-50
2021/07/23 11:22:32;;;;;;;10.15;5.90;;;18.50;81.50;;;;;;5016861;28;20046;-51
2021/07/23 11:25:07;;;;;;;13.02;6.03;;;18.50;82.30;;;;;;5016781;28;20041;-52
2021/07/23 11:27:35;;;;;;;9.30;5.85;;;18.60;82.60;;;;;;5030255;28;20042;-53
2021/07/23 11:30:25;;;;;;;9.07;5.95;;;18.70;82.60;;;;;;5032412;28;20042;-52
2021/07/23 11:32:58;;;;;;;10.02;6.22;;;18.70;81.60;;;;;;5014561;28;20048;-51
2021/07/23 11:35:29;;;;;;;10.13;6.20;;;18.80;79.60;;;;;;5015753;28;20050;-52
2021/07/23 11:37:58;;;;;;;9.75;5.43;;;18.80;80.40;;;;;;4998813;28;20512;-52
2021/07/23 11:40:25;;;;;;;9.15;5.65;;;18.90;80.40;;;;;;5017316;28;20049;-49
2021/07/23 11:42:54;;;;;;;7.88;5.50;;;19.00;80.50;;;;;;5015577;28;20053;-53
2021/07/23 11:45:36;;;;;;;7.70;5.20;;;19.10;80.20;;;;;;5012895;28;20119;-53
2021/07/23 11:48:13;;;;;;;7.13;5.30;;;19.20;79.40;;;;;;5015291;28;20042;-54
2021/07/23 11:50:53;;;;;;;8.75;5.78;;;19.30;78.30;;;;;;5008139;28;20052;-49
2021/07/23 11:53:19;;;;;;;8.00;5.60;;;19.40;79.10;;;;;;5008717;28;20076;-49
2021/07/23 11:55:45;;;;;;;9.63;5.63;;;19.60;77.30;;;;;;5011983;28;20065;-52
2021/07/23 11:58:30;;;;;;;7.40;4.80;;;19.60;77.10;;;;;;5013543;28;20521;-52
2021/07/23 12:00:56;;;;;;;6.97;4.82;;;19.60;77.90;;;;;;5012361;28;20034;-51
2021/07/23 12:03:26;;;;;;;8.23;4.75;;;19.60;76.60;;;;;;5026477;28;20474;-52
2021/07/23 12:06:08;;;;;;;6.75;4.20;;;19.60;75.20;;;;;;5014100;28;20537;-50
2021/07/23 12:08:42;;;;;;;6.90;3.97;;;19.60;75.20;;;;;;5013427;28;20532;-52
2021/07/23 12:11:08;;;;;;;7.00;4.60;;;19.50;73.00;;;;;;5002896;28;20111;-51
2021/07/23 12:13:34;;;;;;;7.50;4.47;;;19.50;74.30;;;;;;5012210;28;20077;-51
2021/07/23 12:16:00;;;;;;;7.20;4.30;;;19.40;74.30;;;;;;5010997;28;20495;-52
2021/07/23 12:18:27;;;;;;;7.90;4.80;;;19.50;75.00;;;;;;4995855;28;20066;-53
2021/07/23 12:21:12;;;;;;;6.68;4.65;;;19.50;73.20;;;;;;5006312;28;20061;-52
2021/07/23 12:23:37;;;;;;;7.82;4.88;;;19.50;73.50;;;;;;5012958;28;20070;-52
2021/07/23 12:26:03;;;;;;;6.55;4.60;;;19.60;73.40;;;;;;5012152;28;20069;-53
2021/07/23 12:28:29;;;;;;;7.00;4.80;;;19.60;75.20;;;;;;5012322;28;20042;-51
2021/07/23 12:30:56;;;;;;;7.68;5.00;;;19.80;75.20;;;;;;5013340;28;20033;-54
2021/07/23 12:33:29;;;;;;;9.18;5.47;;;20.00;74.30;;;;;;5013010;28;20052;-52
2021/07/23 12:35:57;;;;;;;7.03;5.07;;;20.30;70.50;;;;;;5012753;28;20048;-52
2021/07/23 12:38:26;;;;;;;11.18;6.13;;;20.40;70.50;;;;;;5008691;28;20040;-52